Time;durP1;ratioP1;P1;durP2;ratioP2;P2;SDS_P1;SDS_P2;PMS_P1;PMS_P2;Temp;Humidity;BMP_temperature;BMP_pressure;BME280_temperature;BME280_humidity;BME280_pressure;Samples;Min_cycle;Max_cycle;Signal;HPM_P1;HPM_P2
2023/09/10 00:00:21;;;;;;;10.70;8.53;;;17.90;99.90;;;;;;4982525;28;20170;-80
2023/09/10 00:02:46;;;;;;;11.70;7.70;;;17.90;99.90;;;;;;4980327;28;20233;-79
2023/09/10 00:05:12;;;;;;;12.37;8.10;;;17.80;99.90;;;;;;4980558;28;20550;-79
2023/09/10 00:07:37;;;;;;;11.40;7.33;;;17.80;99.90;;;;;;4978736;28;20186;-79
2023/09/10 00:10:03;;;;;;;11.43;8.27;;;17.80;99.90;;;;;;4978246;28;20273;-79
2023/09/10 00:12:29;;;;;;;13.60;8.00;;;17.70;99.90;;;;;;4979846;28;20685;-80
2023/09/10 00:14:54;;;;;;;15.53;8.47;;;17.80;99.90;;;;;;4980241;28;20202;-79
2023/09/10 00:17:20;;;;;;;12.23;8.93;;;17.70;99.90;;;;;;4984552;28;20178;-79
2023/09/10 00:19:45;;;;;;;9.60;8.33;;;17.70;99.90;;;;;;4988612;28;20178;-79
2023/09/10 00:22:11;;;;;;;9.53;8.53;;;17.70;99.90;;;;;;4986839;28;20202;-79
2023/09/10 00:24:36;;;;;;;14.97;9.13;;;17.70;99.90;;;;;;4985316;28;20189;-79
2023/09/10 00:27:03;;;;;;;16.20;9.10;;;17.60;99.90;;;;;;4983240;28;20237;-79
2023/09/10 00:29:28;;;;;;;10.43;8.23;;;17.60;99.90;;;;;;4982711;28;20190;-79
2023/09/10 00:31:54;;;;;;;14.10;9.80;;;17.60;99.90;;;;;;4977053;28;20206;-79
2023/09/10 00:34:19;;;;;;;12.40;9.63;;;17.60;99.90;;;;;;4975935;28;20210;-79
2023/09/10 00:36:45;;;;;;;12.67;8.43;;;17.60;99.90;;;;;;4978322;28;20185;-79
2023/09/10 00:39:10;;;;;;;9.57;8.57;;;17.60;99.90;;;;;;4977970;28;20673;-79
2023/09/10 00:41:36;;;;;;;13.53;9.27;;;17.50;99.90;;;;;;4977859;28;20194;-79
2023/09/10 00:44:02;;;;;;;13.77;9.40;;;17.50;99.90;;;;;;4978346;28;20178;-80
2023/09/10 00:46:28;;;;;;;10.23;9.10;;;17.50;99.90;;;;;;4978561;28;20222;-79
2023/09/10 00:48:54;;;;;;;10.57;9.37;;;17.50;99.90;;;;;;4978265;28;20189;-79
2023/09/10 00:51:20;;;;;;;15.70;9.53;;;17.50;99.90;;;;;;4978590;28;20198;-80
2023/09/10 00:53:45;;;;;;;9.77;8.77;;;17.50;99.90;;;;;;4979373;28;20229;-80
2023/09/10 00:56:12;;;;;;;8.60;7.67;;;17.50;99.90;;;;;;4978685;28;20181;-79
2023/09/10 00:58:38;;;;;;;10.20;8.17;;;17.50;99.90;;;;;;4977663;28;20177;-79
2023/09/10 01:01:03;;;;;;;9.67;8.10;;;17.50;99.90;;;;;;4978852;28;20191;-79
2023/09/10 01:03:31;;;;;;;13.23;9.27;;;17.50;99.90;;;;;;4977380;28;20188;-79
2023/09/10 01:05:56;;;;;;;12.63;9.50;;;17.40;99.90;;;;;;4977754;28;20174;-79
2023/09/10 01:08:22;;;;;;;13.03;8.63;;;17.40;99.90;;;;;;4975591;28;20496;-79
2023/09/10 01:11:02;;;;;;;11.33;9.13;;;17.50;99.90;;;;;;4976940;28;20265;-79
2023/09/10 01:13:55;;;;;;;9.27;8.27;;;17.50;99.90;;;;;;4977050;28;20300;-79
2023/09/10 01:16:30;;;;;;;14.17;9.40;;;17.40;99.90;;;;;;4977402;28;20186;-79
2023/09/10 01:19:04;;;;;;;9.50;7.90;;;17.40;99.90;;;;;;4977150;28;20185;-79
2023/09/10 01:21:38;;;;;;;9.37;7.93;;;17.40;99.90;;;;;;4975199;28;20206;-79
2023/09/10 01:24:24;;;;;;;11.43;7.57;;;17.30;99.90;;;;;;4977279;28;20165;-79
2023/09/10 01:26:59;;;;;;;12.10;8.13;;;17.30;99.90;;;;;;4975984;28;20178;-79
2023/09/10 01:29:25;;;;;;;10.43;7.83;;;17.20;99.90;;;;;;4975914;28;20259;-80
2023/09/10 01:31:57;;;;;;;9.60;8.60;;;17.20;99.90;;;;;;4975937;28;20198;-79
2023/09/10 01:34:26;;;;;;;11.37;8.70;;;17.30;99.90;;;;;;4975795;28;20237;-79
2023/09/10 01:36:59;;;;;;;11.20;9.07;;;17.20;99.90;;;;;;4976334;28;20177;-79
2023/09/10 01:39:36;;;;;;;12.80;10.00;;;17.20;99.90;;;;;;4975029;28;20169;-79
2023/09/10 01:42:05;;;;;;;17.00;11.27;;;17.20;99.90;;;;;;4975848;28;20704;-79
2023/09/10 01:44:32;;;;;;;12.63;11.07;;;17.20;99.90;;;;;;4976716;28;20609;-79
2023/09/10 01:46:59;;;;;;;11.90;10.47;;;17.10;99.90;;;;;;4974786;28;20189;-79
2023/09/10 01:49:25;;;;;;;12.13;9.93;;;17.10;99.90;;;;;;4977884;28;20186;-79
2023/09/10 01:51:51;;;;;;;12.27;9.50;;;17.10;99.90;;;;;;4975950;28;20245;-79
2023/09/10 01:54:16;;;;;;;10.90;9.80;;;17.10;99.90;;;;;;4977979;28;20198;-79
2023/09/10 01:56:42;;;;;;;12.37;10.03;;;17.10;99.90;;;;;;4977964;28;20309;-79
2023/09/10 01:59:07;;;;;;;11.77;9.43;;;17.10;99.90;;;;;;4977576;28;20198;-79
2023/09/10 02:01:33;;;;;;;10.53;9.40;;;17.00;99.90;;;;;;4977670;28;20187;-79
2023/09/10 02:03:58;;;;;;;11.13;8.63;;;17.00;99.90;;;;;;4978389;28;20212;-79
2023/09/10 02:06:24;;;;;;;12.73;9.07;;;17.00;99.90;;;;;;4984704;28;20583;-79
2023/09/10 02:08:49;;;;;;;11.27;8.77;;;17.00;99.90;;;;;;4978563;28;20170;-78
2023/09/10 02:11:15;;;;;;;11.23;9.17;;;16.90;99.90;;;;;;4974523;28;20587;-79
2023/09/10 02:13:41;;;;;;;12.37;10.53;;;16.80;99.90;;;;;;4976064;28;20257;-79
2023/09/10 02:16:07;;;;;;;12.63;9.93;;;16.90;99.90;;;;;;4974658;28;20171;-78
2023/09/10 02:18:32;;;;;;;12.93;9.50;;;16.90;99.90;;;;;;4973667;28;20206;-79
2023/09/10 02:20:58;;;;;;;13.67;9.43;;;16.90;99.90;;;;;;4975203;28;20197;-78
2023/09/10 02:23:23;;;;;;;11.80;9.37;;;16.90;99.90;;;;;;4974981;28;20175;-79
2023/09/10 02:25:49;;;;;;;11.80;10.07;;;16.90;99.90;;;;;;4977042;28;20193;-79
2023/09/10 02:28:14;;;;;;;14.50;10.70;;;16.80;99.90;;;;;;4976719;28;20213;-79
2023/09/10 02:30:40;;;;;;;14.13;10.90;;;16.90;99.90;;;;;;4976842;28;20233;-79
2023/09/10 02:33:06;;;;;;;16.37;11.30;;;16.90;99.90;;;;;;4976509;28;20225;-79
2023/09/10 02:35:32;;;;;;;12.47;10.80;;;16.80;99.90;;;;;;4980047;28;20202;-79
2023/09/10 02:37:57;;;;;;;15.10;11.30;;;16.90;99.90;;;;;;4978732;28;20202;-79
2023/09/10 02:40:23;;;;;;;14.80;10.23;;;16.80;99.90;;;;;;4979705;28;20174;-79
2023/09/10 02:42:48;;;;;;;16.53;11.70;;;16.80;99.90;;;;;;4980362;28;20210;-79
2023/09/10 02:45:14;;;;;;;12.43;11.17;;;16.80;99.90;;;;;;4980278;28;20178;-79
2023/09/10 02:47:39;;;;;;;13.13;11.27;;;16.70;99.90;;;;;;4978132;28;20190;-79
2023/09/10 02:50:06;;;;;;;13.87;9.57;;;16.70;99.90;;;;;;4978650;28;20553;-79
2023/09/10 02:52:31;;;;;;;11.50;10.37;;;16.70;99.90;;;;;;4978402;28;20202;-79
2023/09/10 02:54:57;;;;;;;11.37;9.93;;;16.70;99.90;;;;;;4979031;28;20213;-79
2023/09/10 02:57:23;;;;;;;18.27;10.90;;;16.70;99.90;;;;;;4980472;28;20182;-79
2023/09/10 02:59:48;;;;;;;12.87;9.43;;;16.70;99.90;;;;;;4978517;28;20201;-79
2023/09/10 03:02:14;;;;;;;11.33;10.00;;;16.60;99.90;;;;;;4979159;28;20225;-79
2023/09/10 03:04:39;;;;;;;12.70;10.90;;;16.60;99.90;;;;;;4978816;28;20329;-79
2023/09/10 03:07:05;;;;;;;14.53;10.40;;;16.70;99.90;;;;;;4977933;28;20210;-79
2023/09/10 03:09:30;;;;;;;11.97;10.20;;;16.70;99.90;;;;;;4978887;28;20179;-79
2023/09/10 03:12:22;;;;;;;12.53;10.57;;;16.60;99.90;;;;;;4978351;28;20222;-79
2023/09/10 03:14:48;;;;;;;11.87;9.97;;;16.60;99.90;;;;;;4978433;28;20275;-79
2023/09/10 03:17:13;;;;;;;12.03;10.40;;;16.60;99.90;;;;;;4978565;28;20646;-80
2023/09/10 03:19:40;;;;;;;11.63;9.03;;;16.60;99.90;;;;;;4979058;28;20317;-79
2023/09/10 03:22:06;;;;;;;10.13;9.13;;;16.60;99.90;;;;;;4980261;28;20190;-80
2023/09/10 03:24:35;;;;;;;10.90;9.17;;;16.50;99.90;;;;;;4978520;28;20229;-79
2023/09/10 03:27:00;;;;;;;10.80;9.27;;;16.50;99.90;;;;;;4979201;28;20229;-79
2023/09/10 03:29:26;;;;;;;10.27;9.10;;;16.50;99.90;;;;;;4979980;28;20186;-80
2023/09/10 03:31:51;;;;;;;11.83;10.23;;;16.40;99.90;;;;;;4978265;28;20207;-79
2023/09/10 03:34:17;;;;;;;12.77;10.17;;;16.50;99.90;;;;;;4979899;28;20274;-79
2023/09/10 03:36:42;;;;;;;15.63;10.33;;;16.40;99.90;;;;;;4979305;28;20182;-79
2023/09/10 03:39:08;;;;;;;11.33;9.73;;;16.40;99.90;;;;;;4979380;28;20256;-79
2023/09/10 03:41:33;;;;;;;12.13;10.07;;;16.50;99.90;;;;;;4978248;28;20241;-79
2023/09/10 03:43:59;;;;;;;13.10;10.77;;;16.40;99.90;;;;;;4979396;28;20257;-79
2023/09/10 03:46:25;;;;;;;15.03;10.13;;;16.40;99.90;;;;;;4980160;28;20261;-79
2023/09/10 03:48:50;;;;;;;17.43;9.83;;;16.40;99.90;;;;;;4981178;28;20170;-79
2023/09/10 03:51:16;;;;;;;11.70;9.03;;;16.40;99.90;;;;;;4978992;28;20300;-79
2023/09/10 03:53:42;;;;;;;12.40;9.43;;;16.40;99.90;;;;;;4979809;28;20178;-79
2023/09/10 03:56:07;;;;;;;11.90;9.50;;;16.30;99.90;;;;;;4978582;28;20174;-79
2023/09/10 03:58:33;;;;;;;11.63;9.93;;;16.30;99.90;;;;;;4978213;28;20182;-80
2023/09/10 04:00:58;;;;;;;15.53;10.43;;;16.30;99.90;;;;;;4978518;28;20225;-79
2023/09/10 04:03:25;;;;;;;15.40;10.60;;;16.30;99.90;;;;;;4979177;28;20205;-79
2023/09/10 04:05:52;;;;;;;12.10;10.63;;;16.30;99.90;;;;;;4978830;28;20645;-79
2023/09/10 04:08:18;;;;;;;11.97;10.67;;;16.30;99.90;;;;;;4979445;28;20210;-79
2023/09/10 04:10:44;;;;;;;12.67;11.20;;;16.30;99.90;;;;;;4977930;28;20190;-79
2023/09/10 04:13:09;;;;;;;12.20;10.87;;;16.30;99.90;;;;;;4977642;28;20189;-79
2023/09/10 04:15:35;;;;;;;12.90;11.30;;;16.20;99.90;;;;;;4977847;28;20297;-79
2023/09/10 04:18:01;;;;;;;13.10;11.47;;;16.20;99.90;;;;;;4978501;28;20170;-79
2023/09/10 04:20:27;;;;;;;12.27;10.40;;;16.30;99.90;;;;;;4977451;28;20554;-79
2023/09/10 04:22:52;;;;;;;14.97;11.53;;;16.20;99.90;;;;;;4979225;28;20182;-81
2023/09/10 04:25:18;;;;;;;11.83;10.60;;;16.30;99.90;;;;;;4978934;28;20246;-79
2023/09/10 04:27:43;;;;;;;11.50;10.30;;;16.20;99.90;;;;;;4978255;28;20225;-79
2023/09/10 04:30:09;;;;;;;13.57;9.67;;;16.20;99.90;;;;;;4977213;28;20186;-79
2023/09/10 04:32:35;;;;;;;11.50;9.47;;;16.20;99.90;;;;;;4979001;28;20220;-79
2023/09/10 04:35:03;;;;;;;11.50;10.30;;;16.20;99.90;;;;;;4977035;28;20309;-79
2023/09/10 04:37:28;;;;;;;10.77;9.67;;;16.20;99.90;;;;;;4977056;28;20180;-79
2023/09/10 04:39:54;;;;;;;10.67;9.60;;;16.10;99.90;;;;;;4978243;28;20253;-79
2023/09/10 04:42:19;;;;;;;14.03;9.77;;;16.20;99.90;;;;;;4978050;28;20277;-79
2023/09/10 04:44:45;;;;;;;12.50;10.27;;;16.20;99.90;;;;;;4978583;28;20179;-80
2023/09/10 04:47:11;;;;;;;14.40;10.13;;;16.20;99.90;;;;;;4978631;28;20201;-80
2023/09/10 04:49:36;;;;;;;10.57;9.20;;;16.10;99.90;;;;;;4979442;28;20235;-81
2023/09/10 04:52:02;;;;;;;11.43;9.37;;;16.20;99.90;;;;;;4978894;28;20280;-80
2023/09/10 04:54:27;;;;;;;11.37;10.00;;;16.10;99.90;;;;;;4976618;28;20293;-80
2023/09/10 04:56:53;;;;;;;13.13;9.83;;;16.10;99.90;;;;;;4978831;28;20268;-80
2023/09/10 04:59:20;;;;;;;10.60;9.53;;;16.10;99.90;;;;;;4978788;28;20207;-80
2023/09/10 05:01:45;;;;;;;12.30;9.87;;;16.10;99.90;;;;;;4978189;28;20194;-80
2023/09/10 05:04:11;;;;;;;11.30;10.20;;;16.30;99.90;;;;;;4978951;28;20297;-80
2023/09/10 05:06:36;;;;;;;11.00;9.70;;;16.10;99.90;;;;;;4978495;28;20237;-79
2023/09/10 05:09:02;;;;;;;11.77;10.23;;;16.10;99.90;;;;;;4977633;28;20186;-80
2023/09/10 05:11:28;;;;;;;13.10;9.80;;;16.10;99.90;;;;;;4977307;28;20202;-80
2023/09/10 05:13:53;;;;;;;10.73;9.70;;;16.10;99.90;;;;;;4977858;28;20182;-80
2023/09/10 05:16:19;;;;;;;11.30;10.20;;;16.10;99.90;;;;;;4978940;28;20193;-79
2023/09/10 05:18:45;;;;;;;13.07;10.03;;;16.10;99.90;;;;;;4979378;28;20176;-79
2023/09/10 05:21:10;;;;;;;11.20;9.50;;;16.10;99.90;;;;;;4979437;28;20216;-79
2023/09/10 05:23:36;;;;;;;11.60;10.43;;;16.10;99.90;;;;;;4978442;28;20178;-79
2023/09/10 05:26:02;;;;;;;11.30;10.10;;;16.10;99.90;;;;;;4977925;28;20542;-80
2023/09/10 05:28:28;;;;;;;12.67;10.60;;;16.10;99.90;;;;;;4976054;28;20213;-79
2023/09/10 05:30:54;;;;;;;11.03;9.73;;;16.10;99.90;;;;;;4977881;28;20194;-79
2023/09/10 05:33:19;;;;;;;11.97;10.77;;;16.10;99.90;;;;;;4977908;28;20197;-80
2023/09/10 05:35:58;;;;;;;13.03;10.53;;;16.10;99.90;;;;;;4977334;28;20201;-81
2023/09/10 05:38:24;;;;;;;12.10;10.87;;;16.20;99.90;;;;;;4974952;28;20189;-79
2023/09/10 05:40:50;;;;;;;14.40;10.27;;;16.10;99.90;;;;;;4977746;28;20201;-80
2023/09/10 05:43:15;;;;;;;13.00;10.77;;;16.20;99.90;;;;;;4978541;28;20174;-80
2023/09/10 05:45:41;;;;;;;12.40;9.13;;;16.20;99.90;;;;;;4976723;28;20206;-81
2023/09/10 05:48:06;;;;;;;12.53;10.10;;;16.20;99.90;;;;;;4977982;28;20257;-80
2023/09/10 05:50:32;;;;;;;11.33;9.83;;;16.20;99.90;;;;;;4975286;28;20281;-80
2023/09/10 05:52:59;;;;;;;12.47;9.03;;;16.20;99.90;;;;;;4976341;28;20233;-79
2023/09/10 05:55:25;;;;;;;10.23;9.20;;;16.20;99.90;;;;;;4977549;28;20201;-80
2023/09/10 05:57:52;;;;;;;11.50;9.17;;;16.20;99.90;;;;;;4976482;28;20178;-80
2023/09/10 06:00:21;;;;;;;11.10;9.80;;;16.20;99.90;;;;;;4975958;28;20182;-80
2023/09/10 06:02:49;;;;;;;13.63;9.60;;;16.30;99.90;;;;;;4978598;28;20537;-80
2023/09/10 06:05:15;;;;;;;11.13;9.50;;;16.30;99.90;;;;;;4977013;28;20204;-80
2023/09/10 06:07:41;;;;;;;10.33;9.27;;;16.30;99.90;;;;;;4977226;28;20178;-82
2023/09/10 06:10:09;;;;;;;11.73;9.73;;;16.30;99.90;;;;;;4981499;28;20178;-82
2023/09/10 06:12:38;;;;;;;13.20;10.30;;;16.30;99.90;;;;;;4980693;28;20630;-82
2023/09/10 06:15:05;;;;;;;11.37;10.13;;;16.30;99.90;;;;;;4979491;28;20202;-82
2023/09/10 06:17:31;;;;;;;12.43;11.13;;;16.40;99.90;;;;;;4981179;28;20174;-81
2023/09/10 06:19:57;;;;;;;11.30;10.30;;;16.40;99.90;;;;;;4981700;28;20186;-81
2023/09/10 06:22:22;;;;;;;12.17;10.47;;;16.40;99.90;;;;;;4981104;28;20194;-81
2023/09/10 06:24:48;;;;;;;11.43;10.20;;;16.40;99.90;;;;;;4983380;28;20178;-81
2023/09/10 06:27:13;;;;;;;11.80;10.60;;;16.50;99.90;;;;;;4981860;28;20623;-82
2023/09/10 06:29:39;;;;;;;12.17;10.57;;;16.50;99.90;;;;;;4982049;28;20224;-83
2023/09/10 06:32:05;;;;;;;12.77;11.37;;;16.60;99.90;;;;;;4984602;28;20273;-83
2023/09/10 06:34:30;;;;;;;13.83;10.27;;;16.60;99.90;;;;;;4983904;28;20666;-83
2023/09/10 06:36:56;;;;;;;13.07;10.50;;;16.70;99.90;;;;;;4981089;28;20185;-83
2023/09/10 06:39:22;;;;;;;12.80;10.70;;;16.70;99.90;;;;;;4980043;28;20249;-84
2023/09/10 06:41:47;;;;;;;11.77;10.50;;;16.70;99.90;;;;;;4982388;28;20201;-83
2023/09/10 06:44:13;;;;;;;15.20;10.90;;;16.80;99.90;;;;;;4979626;28;20182;-82
2023/09/10 06:46:38;;;;;;;13.87;10.90;;;16.80;99.90;;;;;;4979998;28;20186;-81
2023/09/10 06:49:04;;;;;;;12.87;11.50;;;17.00;99.90;;;;;;4981620;28;20661;-81
2023/09/10 06:51:29;;;;;;;11.70;10.57;;;16.90;99.90;;;;;;4980369;28;20622;-81
2023/09/10 06:53:55;;;;;;;12.67;11.47;;;17.00;99.90;;;;;;4980789;28;20298;-82
2023/09/10 06:56:21;;;;;;;14.43;10.23;;;17.00;99.90;;;;;;4981670;28;20190;-84
2023/09/10 06:58:47;;;;;;;11.37;10.23;;;17.10;99.90;;;;;;4981793;28;20600;-84
2023/09/10 07:01:18;;;;;;;11.50;10.30;;;17.10;99.90;;;;;;4980367;28;20257;-84
2023/09/10 07:03:49;;;;;;;11.53;10.43;;;17.20;99.90;;;;;;4981868;28;20151;-84
2023/09/10 07:06:15;;;;;;;17.43;11.87;;;17.20;99.90;;;;;;4981449;28;20631;-81
2023/09/10 07:08:40;;;;;;;13.50;12.10;;;17.30;99.90;;;;;;4980527;28;20229;-81
2023/09/10 07:11:06;;;;;;;13.13;11.93;;;17.30;99.90;;;;;;4980028;28;20680;-81
2023/09/10 07:13:32;;;;;;;13.97;12.57;;;17.40;99.90;;;;;;4979557;28;20174;-82
2023/09/10 07:15:57;;;;;;;14.90;13.53;;;17.50;99.90;;;;;;4981297;28;20571;-81
2023/09/10 07:18:23;;;;;;;16.73;14.30;;;17.60;99.90;;;;;;4980703;28;20553;-81
2023/09/10 07:20:48;;;;;;;17.07;15.23;;;17.70;99.90;;;;;;4979690;28;20753;-82
2023/09/10 07:23:14;;;;;;;21.87;16.27;;;17.90;99.90;;;;;;4980748;28;20238;-81
2023/09/10 07:25:39;;;;;;;20.20;16.60;;;17.90;99.90;;;;;;4980246;28;20189;-81
2023/09/10 07:28:06;;;;;;;19.10;15.93;;;18.00;99.90;;;;;;4980306;28;20308;-83
2023/09/10 07:30:31;;;;;;;20.73;16.73;;;18.10;99.90;;;;;;4981477;28;20674;-83
2023/09/10 07:32:57;;;;;;;20.63;16.83;;;18.30;99.90;;;;;;4982460;28;20186;-82
2023/09/10 07:35:22;;;;;;;17.97;15.87;;;18.40;99.90;;;;;;4981055;28;20275;-84
2023/09/10 07:37:48;;;;;;;18.17;15.43;;;18.50;99.90;;;;;;4982435;28;20259;-83
2023/09/10 07:40:14;;;;;;;17.37;14.73;;;18.60;99.90;;;;;;4981934;28;20769;-83
2023/09/10 07:42:40;;;;;;;19.80;14.27;;;18.80;99.90;;;;;;4981692;28;20197;-85
2023/09/10 07:45:13;;;;;;;19.80;14.60;;;18.80;99.90;;;;;;4979595;28;20614;-84
2023/09/10 07:47:39;;;;;;;20.07;15.10;;;18.90;99.90;;;;;;4978636;28;20300;-83
2023/09/10 07:50:05;;;;;;;17.47;14.60;;;19.00;99.90;;;;;;4979082;28;20241;-83
2023/09/10 07:52:30;;;;;;;19.00;14.27;;;19.10;99.90;;;;;;4978543;28;20206;-81
2023/09/10 07:54:56;;;;;;;20.50;13.20;;;19.20;99.90;;;;;;4981212;28;20697;-84
2023/09/10 07:57:22;;;;;;;21.47;14.23;;;19.30;99.90;;;;;;4980632;28;20185;-84
2023/09/10 07:59:47;;;;;;;17.83;12.33;;;19.40;99.90;;;;;;4979219;28;20259;-82
2023/09/10 08:02:13;;;;;;;17.27;12.70;;;19.50;99.90;;;;;;4979984;28;20255;-83
2023/09/10 08:04:39;;;;;;;16.73;11.80;;;19.70;99.90;;;;;;4981212;28;20182;-83
2023/09/10 08:07:05;;;;;;;18.87;12.47;;;19.70;99.90;;;;;;4980439;28;20201;-82
2023/09/10 08:09:31;;;;;;;17.10;10.83;;;19.70;99.90;;;;;;4980904;28;20654;-83
2023/09/10 08:11:57;;;;;;;18.73;10.80;;;19.90;99.90;;;;;;4980726;28;20197;-83
2023/09/10 08:14:22;;;;;;;13.70;10.13;;;20.00;99.90;;;;;;4980168;28;20206;-83
2023/09/10 08:16:48;;;;;;;21.73;11.77;;;20.00;99.90;;;;;;4980215;28;20564;-84
2023/09/10 08:19:13;;;;;;;22.33;11.40;;;20.20;99.90;;;;;;4979250;28;20181;-83
2023/09/10 08:21:39;;;;;;;14.93;11.00;;;20.30;99.90;;;;;;4979957;28;20202;-83
2023/09/10 08:24:05;;;;;;;20.77;10.43;;;20.50;99.90;;;;;;4980167;28;20171;-84
2023/09/10 08:26:31;;;;;;;16.23;10.97;;;20.60;99.90;;;;;;4980990;28;20174;-85
2023/09/10 08:28:56;;;;;;;14.77;10.07;;;20.60;99.90;;;;;;4982635;28;20174;-84
2023/09/10 08:31:22;;;;;;;17.60;9.97;;;20.80;99.90;;;;;;4979950;28;20666;-84
2023/09/10 08:33:47;;;;;;;14.80;9.70;;;21.00;99.90;;;;;;4981034;28;20271;-84
2023/09/10 08:36:13;;;;;;;21.47;10.13;;;21.00;99.90;;;;;;4980186;28;20210;-85
2023/09/10 08:38:38;;;;;;;20.97;10.33;;;20.90;99.90;;;;;;4981637;28;20179;-84
2023/09/10 08:41:17;;;;;;;24.93;9.50;;;21.10;99.90;;;;;;4981068;28;20245;-84
2023/09/10 08:43:58;;;;;;;24.97;10.13;;;21.20;99.90;;;;;;4981136;28;20174;-84
2023/09/10 08:46:30;;;;;;;18.27;9.73;;;21.40;99.90;;;;;;4981911;28;20174;-85
2023/09/10 08:49:00;;;;;;;13.40;9.30;;;21.40;99.90;;;;;;4982970;28;20158;-84
2023/09/10 08:51:27;;;;;;;16.07;9.37;;;21.50;99.90;;;;;;4983193;28;20712;-83
2023/09/10 08:53:56;;;;;;;12.50;7.80;;;21.50;99.90;;;;;;4978569;28;20186;-84
2023/09/10 08:56:21;;;;;;;14.07;7.83;;;21.60;99.90;;;;;;4978709;28;20181;-84
2023/09/10 08:58:48;;;;;;;15.73;8.73;;;21.80;99.90;;;;;;4977675;28;20182;-84
2023/09/10 09:01:14;;;;;;;12.67;8.43;;;21.80;99.90;;;;;;4977576;28;20206;-83
2023/09/10 09:03:39;;;;;;;12.53;7.73;;;21.90;99.90;;;;;;4980533;28;20209;-84
2023/09/10 09:06:06;;;;;;;14.07;7.67;;;22.10;99.90;;;;;;4979239;28;20289;-84
2023/09/10 09:08:34;;;;;;;13.83;7.67;;;22.10;99.90;;;;;;4979759;28;20214;-83
2023/09/10 09:11:12;;;;;;;12.03;7.60;;;22.20;99.90;;;;;;4979515;28;20232;-84
2023/09/10 09:13:40;;;;;;;18.23;8.53;;;22.40;99.90;;;;;;4980726;28;20266;-84
2023/09/10 09:16:07;;;;;;;17.53;7.77;;;22.30;99.90;;;;;;4978516;28;20649;-83
2023/09/10 09:18:35;;;;;;;14.87;8.17;;;22.40;99.90;;;;;;4980487;28;20205;-84
2023/09/10 09:21:11;;;;;;;12.60;7.70;;;22.50;99.90;;;;;;4978926;28;20206;-83
2023/09/10 09:24:12;;;;;;;17.07;7.80;;;22.60;99.90;;;;;;4978899;28;20572;-83
2023/09/10 09:26:39;;;;;;;17.50;7.93;;;22.70;99.90;;;;;;4970631;28;20190;-84
2023/09/10 09:29:07;;;;;;;15.87;7.67;;;22.90;99.90;;;;;;4978603;28;20233;-84
2023/09/10 09:31:33;;;;;;;15.83;7.60;;;23.00;99.90;;;;;;4978409;28;20202;-83
2023/09/10 09:33:58;;;;;;;13.17;7.47;;;23.00;99.90;;;;;;4979390;28;20190;-84
2023/09/10 09:36:28;;;;;;;17.87;7.30;;;23.00;99.90;;;;;;4981670;28;20186;-84
2023/09/10 09:38:57;;;;;;;15.53;6.97;;;23.20;99.90;;;;;;4979282;28;20178;-83
2023/09/10 09:41:23;;;;;;;16.42;7.82;;;23.20;99.90;;;;;;4980188;28;20625;-83
2023/09/10 09:43:48;;;;;;;14.73;7.20;;;23.20;99.90;;;;;;4983937;28;20174;-83
2023/09/10 09:46:14;;;;;;;16.30;7.67;;;23.50;99.90;;;;;;4983057;28;20182;-83
2023/09/10 09:48:40;;;;;;;14.03;7.17;;;23.50;99.90;;;;;;4983660;28;20547;-83
2023/09/10 09:51:05;;;;;;;14.52;7.05;;;23.80;99.90;;;;;;4983214;28;20213;-84
2023/09/10 09:53:33;;;;;;;21.50;6.60;;;23.70;99.90;;;;;;4986004;28;20234;-85
2023/09/10 09:56:03;;;;;;;11.13;5.63;;;23.80;99.90;;;;;;4984396;28;20201;-84
2023/09/10 09:58:29;;;;;;;13.80;6.37;;;23.80;99.90;;;;;;4985627;28;20229;-83
2023/09/10 10:00:59;;;;;;;11.25;6.38;;;23.80;99.90;;;;;;4982350;28;20198;-83
2023/09/10 10:03:24;;;;;;;15.05;6.43;;;24.00;99.90;;;;;;4982574;28;20185;-83
2023/09/10 10:05:51;;;;;;;14.70;6.90;;;24.00;99.90;;;;;;4984290;28;20185;-84
2023/09/10 10:08:18;;;;;;;12.00;6.97;;;23.90;99.90;;;;;;4984111;28;20202;-83
2023/09/10 10:10:48;;;;;;;11.30;5.88;;;24.10;99.90;;;;;;4982281;28;20708;-83
2023/09/10 10:13:19;;;;;;;12.57;6.25;;;24.10;99.90;;;;;;4982002;28;20178;-83
2023/09/10 10:15:47;;;;;;;12.48;6.28;;;24.30;99.90;;;;;;4983388;28;20285;-84
2023/09/10 10:18:15;;;;;;;14.90;6.57;;;24.40;99.90;;;;;;4981890;28;20185;-83
2023/09/10 10:20:44;;;;;;;14.73;6.35;;;24.50;99.90;;;;;;4981516;28;20206;-83
2023/09/10 10:23:12;;;;;;;12.75;5.97;;;24.60;99.90;;;;;;4981230;28;20657;-83
2023/09/10 10:25:38;;;;;;;16.55;6.43;;;24.60;99.90;;;;;;4982562;28;20166;-83
2023/09/10 10:28:07;;;;;;;17.35;6.00;;;24.60;99.90;;;;;;4981439;28;20565;-83
2023/09/10 10:30:34;;;;;;;14.50;5.47;;;24.80;99.90;;;;;;4981869;28;20189;-84
2023/09/10 10:33:02;;;;;;;14.90;7.03;;;24.90;1.00;;;;;;4983192;28;20280;-84
2023/09/10 10:35:34;;;;;;;14.25;6.47;;;24.90;99.90;;;;;;4981718;28;20212;-83
2023/09/10 10:38:05;;;;;;;9.52;6.15;;;25.00;1.00;;;;;;4982975;28;20170;-83
2023/09/10 10:40:35;;;;;;;15.25;5.78;;;25.10;1.00;;;;;;4981229;28;20177;-85
2023/09/10 10:43:11;;;;;;;9.10;5.43;;;25.20;99.90;;;;;;4982821;28;20494;-83
2023/09/10 10:45:38;;;;;;;15.32;6.03;;;25.30;1.00;;;;;;4981494;28;20181;-83
2023/09/10 10:48:08;;;;;;;12.40;5.47;;;25.30;99.90;;;;;;4983045;28;20178;-83
2023/09/10 10:50:36;;;;;;;11.90;5.38;;;25.40;99.90;;;;;;4981924;28;20639;-83
2023/09/10 10:53:10;;;;;;;14.48;6.10;;;25.50;1.00;;;;;;4982174;28;20178;-83
2023/09/10 10:55:37;;;;;;;15.13;6.30;;;25.60;1.00;;;;;;4982209;28;20598;-83
2023/09/10 10:58:03;;;;;;;13.45;5.63;;;25.60;99.90;;;;;;4980954;28;20174;-83
2023/09/10 11:00:30;;;;;;;14.07;5.97;;;25.80;99.90;;;;;;4980901;28;20680;-84
2023/09/10 11:03:15;;;;;;;11.77;5.38;;;26.00;99.90;;;;;;4982443;28;20555;-84
2023/09/10 11:05:57;;;;;;;14.57;6.07;;;25.90;1.00;;;;;;4981624;28;20177;-83
2023/09/10 11:08:31;;;;;;;11.70;5.28;;;26.10;99.90;;;;;;4982337;28;20229;-85
2023/09/10 11:10:57;;;;;;;8.15;4.90;;;26.20;1.00;;;;;;4983099;28;20194;-83
2023/09/10 11:13:23;;;;;;;13.48;5.20;;;26.30;99.90;;;;;;4982310;28;20185;-83
2023/09/10 11:16:04;;;;;;;13.05;5.28;;;26.40;99.90;;;;;;4982815;28;20198;-83
2023/09/10 11:18:38;;;;;;;9.50;4.85;;;26.30;99.90;;;;;;4982220;28;20183;-84
2023/09/10 11:21:09;;;;;;;8.52;4.07;;;26.30;1.00;;;;;;4980741;28;20193;-84
2023/09/10 11:23:37;;;;;;;13.38;4.78;;;26.30;99.90;;;;;;4980969;28;20237;-83
2023/09/10 11:26:15;;;;;;;11.50;5.15;;;26.30;1.00;;;;;;4980832;28;20186;-83
2023/09/10 11:28:54;;;;;;;12.23;5.63;;;26.40;99.90;;;;;;4980477;28;20178;-84
2023/09/10 11:34:27;;;;;;;10.20;5.00;;;26.60;1.00;;;;;;4982274;28;20281;-84
2023/09/10 11:36:55;;;;;;;16.75;5.00;;;26.60;99.90;;;;;;4979238;28;20179;-83
2023/09/10 11:39:22;;;;;;;9.25;4.47;;;26.60;1.00;;;;;;4980393;28;20186;-84
2023/09/10 11:41:52;;;;;;;11.65;4.40;;;26.70;88.00;;;;;;4982636;28;20670;-84
2023/09/10 11:44:18;;;;;;;12.55;4.93;;;26.80;1.00;;;;;;4980818;28;20554;-83
2023/09/10 11:46:44;;;;;;;12.85;4.90;;;26.90;1.00;;;;;;4979651;28;20189;-83
2023/09/10 11:49:10;;;;;;;12.75;5.65;;;27.00;1.00;;;;;;4981319;28;20181;-83
2023/09/10 11:51:43;;;;;;;8.68;4.57;;;27.00;1.00;;;;;;4980333;28;20261;-87
2023/09/10 11:54:09;;;;;;;8.77;4.75;;;27.00;1.00;;;;;;4980608;28;20174;-84
2023/09/10 11:56:34;;;;;;;8.93;4.75;;;27.20;1.00;;;;;;4982773;28;20167;-84
2023/09/10 11:59:03;;;;;;;13.65;4.28;;;27.20;99.90;;;;;;4981142;28;20205;-84
2023/09/10 12:01:30;;;;;;;9.43;4.22;;;27.30;1.00;;;;;;4980188;28;20201;-83
2023/09/10 12:03:56;;;;;;;13.73;4.40;;;27.50;1.00;;;;;;4981259;28;20532;-83
2023/09/10 12:06:21;;;;;;;8.52;3.90;;;27.40;1.50;;;;;;4978880;28;20189;-83
2023/09/10 12:08:47;;;;;;;7.22;4.00;;;27.50;1.00;;;;;;4981606;28;20178;-83
2023/09/10 12:11:17;;;;;;;11.82;4.40;;;27.70;1.00;;;;;;4982194;28;20190;-83
2023/09/10 12:13:43;;;;;;;13.57;4.60;;;27.50;99.90;;;;;;4982162;28;20284;-83
2023/09/10 12:16:11;;;;;;;8.73;4.50;;;27.60;99.90;;;;;;4978273;28;20202;-83
2023/09/10 12:18:36;;;;;;;19.52;5.20;;;27.60;1.00;;;;;;4969666;28;20190;-83
2023/09/10 12:21:03;;;;;;;11.27;5.13;;;27.70;1.00;;;;;;4959786;28;20202;-83
2023/09/10 12:23:28;;;;;;;14.40;5.35;;;27.80;1.00;;;;;;4960070;29;20179;-83
2023/09/10 12:25:55;;;;;;;15.45;5.07;;;27.80;1.00;;;;;;4960331;28;20265;-84
2023/09/10 12:28:21;;;;;;;12.80;4.60;;;27.90;99.90;;;;;;4986838;28;20181;-83
2023/09/10 12:30:47;;;;;;;14.65;5.50;;;27.90;1.00;;;;;;4998546;28;20208;-84
2023/09/10 12:33:12;;;;;;;13.40;5.22;;;28.00;99.90;;;;;;4998646;28;20657;-84
2023/09/10 12:35:38;;;;;;;16.23;5.13;;;28.10;99.90;;;;;;4998550;28;20344;-84
2023/09/10 12:38:04;;;;;;;9.35;4.53;;;28.10;1.00;;;;;;4979485;28;20610;-84